This is the latest recevied weather packets stored in our database for station/object KI5NXU. If no packets are shown the sender has not sent any weather packets the latest 1 day(s).
| Time | Temp. | Humidity | Pressure | Rain* | Wind** | Luminosity | Snow |
|---|---|---|---|---|---|---|---|
| 1778040383 | 14.44° C | 80% | 1010 hPa | 0 mm | 1.34 m/s, 51° | 0 W/m² | - |
| 1778040080 | 14.44° C | 81% | 1010.3 hPa | 0 mm | 2.68 m/s, 91° | 0 W/m² | - |
| 1778039777 | 14.44° C | 81% | 1010.1 hPa | 0 mm | 0 m/s | 0 W/m² | - |
| 1778039473 | 14.44° C | 81% | 1010 hPa | 0 mm | 1.79 m/s, 67° | 0 W/m² | - |
| 1778039171 | 14.44° C | 81% | 1009.9 hPa | 0 mm | 1.34 m/s, 54° | 0 W/m² | - |
| 1778038868 | 14.44° C | 81% | 1009.6 hPa | 0 mm | 0 m/s | 0 W/m² | - |
| 1778038565 | 14.44° C | 80% | 1009.8 hPa | 0 mm | 2.24 m/s, 42° | 0 W/m² | - |
| 1778038261 | 15° C | 80% | 1009.8 hPa | 0 mm | 3.13 m/s, 5° | 0 W/m² | - |
| 1778037959 | 15° C | 80% | 1009.9 hPa | 0 mm | 0.89 m/s, 5° | 0 W/m² | - |
| 1778037656 | 15° C | 80% | 1009.9 hPa | 0 mm | 1.34 m/s, 14° | 0 W/m² | - |
| 1778037353 | 15° C | 80% | 1009.6 hPa | 0 mm | 2.24 m/s, 31° | 0 W/m² | - |
| 1778037050 | 15.56° C | 79% | 1009.4 hPa | 0 mm | 0.89 m/s, 5° | 0 W/m² | - |
| 1778036748 | 15.56° C | 79% | 1009.4 hPa | 0 mm | 1.34 m/s, 1° | 0 W/m² | - |
| 1778036445 | 15.56° C | 79% | 1009.6 hPa | 0 mm | 0 m/s | 0 W/m² | - |
| 1778036142 | 15.56° C | 78% | 1009.3 hPa | 0 mm | 0.45 m/s, 99° | 0 W/m² | - |
| 1778035838 | 16.11° C | 77% | 1009.3 hPa | 0 mm | 0.89 m/s, 74° | 0 W/m² | - |
| 1778035535 | 16.11° C | 78% | 1009 hPa | 0 mm | 0 m/s | 0 W/m² | - |
| 1778035231 | 16.11° C | 78% | 1008.4 hPa | 0 mm | 2.24 m/s, 329° | 0 W/m² | - |
| 1778034928 | 16.67° C | 77% | 1008.7 hPa | 0 mm | 0.45 m/s, 6° | 0 W/m² | - |
| 1778034635 | 16.67° C | 76% | 1008.4 hPa | 0 mm | 0 m/s | 0 W/m² | - |
| 1778034323 | 16.67° C | 76% | 1008.4 hPa | 0 mm | 1.34 m/s, 25° | 0 W/m² | - |
| 1778034020 | 17.22° C | 76% | 1008.3 hPa | 0 mm | 0.89 m/s, 51° | 0 W/m² | - |
| 1778033717 | 17.22° C | 76% | 1008.2 hPa | 0 mm | 1.34 m/s, 73° | 0 W/m² | - |
| 1778033415 | 17.78° C | 75% | 1008.4 hPa | 0 mm | 3.13 m/s, 322° | 0 W/m² | - |
| 1778033112 | 18.33° C | 74% | 1007.8 hPa | 0 mm | 0 m/s | 0 W/m² | - |
* Rain latest hour (hover to see other rain measurements)
** Current wind speed in m/s (hover to see current wind gust speed)